Time;durP1;ratioP1;P1;durP2;ratioP2;P2;SDS_P1;SDS_P2;PMS_P1;PMS_P2;Temp;Humidity;BMP_temperature;BMP_pressure;BME280_temperature;BME280_humidity;BME280_pressure;Samples;Min_cycle;Max_cycle;Signal;HPM_P1;HPM_P2
2023/11/17 00:02:02;;;;;;;5.17;2.70;;;;;;;1.13;100.00;101992.06;5025516;28;20473;-75
2023/11/17 00:04:28;;;;;;;5.57;2.80;;;;;;;0.36;100.00;101877.75;5024138;28;20681;-74
2023/11/17 00:06:53;;;;;;;4.27;2.40;;;;;;;2.69;100.00;102188.00;5026208;28;20188;-75
2023/11/17 00:09:18;;;;;;;7.00;2.60;;;;;;;2.03;100.00;102057.88;5025297;28;23596;-75
2023/11/17 00:11:44;;;;;;;7.13;2.50;;;;;;;1.41;100.00;102068.53;5023941;28;20620;-74
2023/11/17 00:14:11;;;;;;;5.10;2.77;;;;;;;0.76;100.00;101961.25;5026301;28;20232;-75
2023/11/17 00:16:36;;;;;;;6.20;2.97;;;;;;;1.96;100.00;102139.47;5024997;28;21001;-75
2023/11/17 00:19:06;;;;;;;6.50;3.10;;;;;;;2.67;100.00;102188.13;5027338;28;20224;-75
2023/11/17 00:21:32;;;;;;;6.80;2.77;;;;;;;0.85;100.00;101981.75;5024992;28;20699;-74
2023/11/17 00:23:57;;;;;;;5.63;3.00;;;;;;;1.49;100.00;102150.81;5025327;28;21232;-75
2023/11/17 00:26:23;;;;;;;9.30;3.20;;;;;;;2.52;100.00;102273.16;5022047;28;20567;-75
2023/11/17 00:28:48;;;;;;;3.87;2.07;;;;;;;1.30;100.00;102101.00;5024363;28;20250;-74
2023/11/17 00:31:14;;;;;;;5.80;2.40;;;;;;;1.10;100.00;102068.91;5022434;28;20947;-75
2023/11/17 00:33:40;;;;;;;5.60;2.77;;;;;;;1.11;100.00;102070.59;5025121;28;20212;-74
2023/11/17 00:36:08;;;;;;;5.03;2.03;;;;;;;3.47;100.00;102441.16;5022077;28;20212;-74
2023/11/17 00:38:36;;;;;;;5.00;2.03;;;;;;;2.13;100.00;102241.50;5026344;28;20439;-74
2023/11/17 00:41:02;;;;;;;6.00;2.20;;;;;;;1.78;100.00;102193.72;5022508;28;20451;-74
2023/11/17 00:43:29;;;;;;;5.37;2.40;;;;;;;1.54;100.00;102132.84;5025687;28;20522;-75
2023/11/17 00:45:58;;;;;;;4.30;2.20;;;;;;;1.20;100.00;102077.03;5022894;28;20444;-74
2023/11/17 00:48:28;;;;;;;3.97;1.93;;;;;;;3.06;100.00;102289.47;5023749;28;20458;-74
2023/11/17 00:50:55;;;;;;;5.30;2.73;;;;;;;1.68;100.00;102222.63;5023610;28;20438;-74
2023/11/17 00:53:25;;;;;;;5.17;2.40;;;;;;;2.14;100.00;102259.09;5023434;28;22151;-74
2023/11/17 00:55:52;;;;;;;4.00;1.70;;;;;;;3.53;100.00;102473.41;5025450;28;20447;-74
2023/11/17 00:58:19;;;;;;;3.37;1.70;;;;;;;2.70;100.00;102316.88;5022855;28;20547;-74
2023/11/17 01:00:45;;;;;;;3.80;1.80;;;;;;;3.49;100.00;102412.72;5023644;28;20439;-74
2023/11/17 01:03:10;;;;;;;3.47;1.67;;;;;;;3.16;100.00;102425.72;5023539;28;20500;-74
2023/11/17 01:05:36;;;;;;;3.70;1.90;;;;;;;2.93;100.00;102352.31;5022246;28;20188;-74
2023/11/17 01:08:01;;;;;;;4.53;2.00;;;;;;;2.56;100.00;102347.00;5024385;28;20188;-74
2023/11/17 01:10:27;;;;;;;8.03;2.13;;;;;;;1.96;100.00;102284.19;5023211;28;20305;-74
2023/11/17 01:12:53;;;;;;;3.90;1.53;;;;;;;2.71;100.00;102398.03;5024859;28;20195;-74
2023/11/17 01:15:19;;;;;;;5.00;2.10;;;;;;;3.21;100.00;102499.63;5024345;28;20443;-74
2023/11/17 01:17:45;;;;;;;4.17;1.80;;;;;;;2.52;100.00;102421.50;5024317;28;20216;-74
2023/11/17 01:20:12;;;;;;;3.30;1.50;;;;;;;2.98;100.00;102484.50;5024248;28;20450;-74
2023/11/17 01:22:41;;;;;;;4.70;1.87;;;;;;;2.27;100.00;102351.72;5020988;28;20446;-74
2023/11/17 01:25:07;;;;;;;5.00;1.70;;;;;;;3.68;100.00;102537.78;5024515;28;20979;-74
2023/11/17 01:27:32;;;;;;;4.30;1.90;;;;;;;3.22;100.00;102492.53;5023070;28;20594;-74
2023/11/17 01:29:58;;;;;;;4.27;2.03;;;;;;;2.72;100.00;102413.84;5024752;28;20451;-74
2023/11/17 01:32:23;;;;;;;4.67;1.97;;;;;;;3.34;100.00;102465.09;5024980;28;20215;-74
2023/11/17 01:34:49;;;;;;;3.90;1.60;;;;;;;3.74;100.00;102478.94;5022627;28;20251;-74
2023/11/17 01:37:14;;;;;;;5.10;2.00;;;;;;;3.82;100.00;102404.91;5024635;28;20586;-75
2023/11/17 01:39:39;;;;;;;5.60;2.13;;;;;;;4.73;100.00;102526.28;5023314;28;20184;-74
2023/11/17 01:42:05;;;;;;;3.60;1.53;;;;;;;4.56;100.00;102492.19;5024927;28;20766;-74
2023/11/17 01:44:31;;;;;;;3.57;1.20;;;;;;;4.90;100.00;102540.09;5022488;28;20308;-74
2023/11/17 01:46:57;;;;;;;3.93;1.33;;;;;;;4.65;100.00;102493.28;5027715;28;20470;-74
2023/11/17 01:49:23;;;;;;;4.40;1.40;;;;;;;4.73;100.00;102513.00;5024434;28;20188;-75
2023/11/17 01:51:51;;;;;;;4.00;1.40;;;;;;;4.88;100.00;102475.53;5030727;28;20442;-75
2023/11/17 01:54:17;;;;;;;3.50;1.50;;;;;;;4.12;100.00;102358.38;5033225;28;20211;-74
2023/11/17 01:56:43;;;;;;;4.17;1.20;;;;;;;5.12;100.00;102526.81;5028375;28;20482;-74
2023/11/17 01:59:09;;;;;;;3.73;1.20;;;;;;;4.60;100.00;102429.03;5030649;28;20451;-74
2023/11/17 02:01:34;;;;;;;4.20;1.70;;;;;;;4.91;100.00;102513.38;5026640;28;20195;-74
2023/11/17 02:04:01;;;;;;;7.07;1.60;;;;;;;4.15;100.00;102389.16;5030023;28;20208;-74
2023/11/17 02:06:48;;;;;;;3.33;1.50;;;;;;;5.06;100.00;102535.25;5028130;28;20187;-74
2023/11/17 02:09:36;;;;;;;4.40;1.60;;;;;;;4.72;100.00;102492.72;5026669;28;20443;-75
2023/11/17 02:12:14;;;;;;;3.57;1.30;;;;;;;5.44;100.00;102544.66;5043602;28;20451;-74
2023/11/17 02:14:42;;;;;;;8.20;1.70;;;;;;;4.71;100.00;102437.84;5023088;28;20578;-74
2023/11/17 02:17:08;;;;;;;5.53;1.57;;;;;;;5.38;100.00;102540.69;5023830;28;20481;-74
2023/11/17 02:19:34;;;;;;;6.23;1.20;;;;;;;5.50;100.00;102525.53;5020884;28;20508;-74
2023/11/17 02:22:06;;;;;;;3.77;1.50;;;;;;;4.74;100.00;102405.72;5022695;28;20728;-74
2023/11/17 02:24:42;;;;;;;3.60;1.40;;;;;;;4.85;100.00;102444.72;5023182;28;20526;-74
2023/11/17 02:27:25;;;;;;;3.43;1.40;;;;;;;4.52;100.00;102371.19;5024146;28;20443;-74
2023/11/17 02:29:56;;;;;;;5.33;1.47;;;;;;;4.33;100.00;102350.53;5022679;28;20445;-75
2023/11/17 02:32:24;;;;;;;5.57;1.63;;;;;;;4.82;100.00;102401.59;5022595;28;20525;-75
2023/11/17 02:34:53;;;;;;;5.77;2.00;;;;;;;4.69;100.00;102383.97;5021857;28;20553;-75
2023/11/17 02:37:25;;;;;;;4.90;2.10;;;;;;;5.27;100.00;102442.25;5024485;28;20541;-74
2023/11/17 02:39:57;;;;;;;3.20;1.20;;;;;;;5.46;100.00;102475.34;5021956;28;20435;-75
2023/11/17 02:42:26;;;;;;;3.57;1.70;;;;;;;5.21;100.00;102448.91;5022233;28;20438;-75
2023/11/17 02:44:52;;;;;;;4.20;1.63;;;;;;;5.55;100.00;102474.56;5023282;28;20558;-75
2023/11/17 02:47:27;;;;;;;3.73;1.50;;;;;;;5.42;100.00;102472.09;5021719;28;20428;-75
2023/11/17 02:50:00;;;;;;;3.47;1.40;;;;;;;5.05;100.00;102413.03;5021387;28;20576;-75
2023/11/17 02:52:42;;;;;;;5.83;1.50;;;;;;;5.39;100.00;102437.75;5024427;28;20876;-75
2023/11/17 02:55:10;;;;;;;3.57;1.60;;;;;;;4.38;100.00;102305.00;5023498;28;20439;-76
2023/11/17 02:57:38;;;;;;;3.83;1.50;;;;;;;4.58;100.00;102319.34;5022136;28;20474;-75
2023/11/17 03:00:05;;;;;;;3.57;1.77;;;;;;;4.85;100.00;102354.31;5022178;28;20490;-75
2023/11/17 03:02:30;;;;;;;3.43;1.50;;;;;;;5.06;100.00;102404.06;5016612;28;20862;-75
2023/11/17 03:04:56;;;;;;;4.07;1.47;;;;;;;4.95;100.00;102397.84;5017669;28;20482;-75
2023/11/17 03:07:21;;;;;;;3.77;1.90;;;;;;;4.73;100.00;102369.44;5019519;28;20185;-75
2023/11/17 03:09:51;;;;;;;5.13;1.60;;;;;;;4.92;100.00;102407.88;5022538;28;20283;-75
2023/11/17 03:12:17;;;;;;;3.53;1.50;;;;;;;4.33;100.00;102285.94;5021605;28;20203;-75
2023/11/17 03:14:42;;;;;;;3.73;1.50;;;;;;;4.62;100.00;102275.59;5021649;28;20505;-75
2023/11/17 03:17:09;;;;;;;5.03;1.57;;;;;;;5.01;100.00;102329.16;5019849;28;20697;-75
2023/11/17 03:19:36;;;;;;;2.90;1.40;;;;;;;5.13;100.00;102395.47;5021016;28;20642;-74
2023/11/17 03:22:03;;;;;;;5.87;1.50;;;;;;;5.37;100.00;102407.75;5021447;28;20443;-74
2023/11/17 03:24:29;;;;;;;3.93;2.00;;;;;;;4.84;100.00;102354.47;5019678;28;21319;-75
2023/11/17 03:26:56;;;;;;;5.57;2.00;;;;;;;5.28;100.00;102421.81;5017786;28;20485;-74
2023/11/17 03:29:23;;;;;;;4.50;2.13;;;;;;;4.70;100.00;102321.84;5019999;28;20446;-75
2023/11/17 03:31:52;;;;;;;5.03;1.77;;;;;;;5.22;100.00;102425.81;5017587;28;20883;-75
2023/11/17 03:34:29;;;;;;;3.77;1.80;;;;;;;5.19;100.00;102418.09;5020614;28;20462;-75
2023/11/17 03:37:02;;;;;;;4.50;1.83;;;;;;;5.57;100.00;102432.72;5018870;28;20557;-75
2023/11/17 03:39:28;;;;;;;3.20;1.60;;;;;;;5.53;100.00;102412.66;5019196;28;20462;-75
2023/11/17 03:41:54;;;;;;;8.27;2.13;;;;;;;5.53;100.00;102425.97;5020197;28;20942;-75
2023/11/17 03:44:24;;;;;;;6.70;1.87;;;;;;;4.78;100.00;102329.22;5018486;28;20458;-74
2023/11/17 03:46:50;;;;;;;3.93;1.53;;;;;;;4.78;100.00;102325.72;5022199;28;21576;-74
2023/11/17 03:49:18;;;;;;;3.63;1.60;;;;;;;5.47;100.00;102431.78;5020795;28;20467;-75
2023/11/17 03:51:44;;;;;;;5.57;1.73;;;;;;;4.63;100.00;102315.34;5019317;28;20432;-74
2023/11/17 03:54:10;;;;;;;4.13;1.57;;;;;;;4.78;100.00;102344.34;5014107;28;20872;-74
2023/11/17 03:56:35;;;;;;;3.40;1.63;;;;;;;4.98;100.00;102368.31;5017073;28;20998;-74
2023/11/17 03:59:03;;;;;;;6.00;1.50;;;;;;;4.55;100.00;102320.44;5019655;28;20501;-75
2023/11/17 04:01:29;;;;;;;3.33;1.40;;;;;;;4.66;100.00;102296.50;5018583;28;20196;-75
2023/11/17 04:03:55;;;;;;;5.83;2.23;;;;;;;4.67;100.00;102318.59;5018928;28;20548;-75
2023/11/17 04:06:20;;;;;;;4.40;1.53;;;;;;;4.12;100.00;102240.69;5017777;28;20825;-75
2023/11/17 04:08:47;;;;;;;4.70;1.40;;;;;;;5.24;100.00;102431.88;5022778;28;20271;-75
2023/11/17 04:11:15;;;;;;;9.53;1.80;;;;;;;4.53;100.00;102301.13;5020368;28;20223;-75
2023/11/17 04:13:44;;;;;;;5.40;1.40;;;;;;;4.73;100.00;102390.72;5019134;28;20534;-75
2023/11/17 04:16:10;;;;;;;3.27;1.20;;;;;;;5.08;100.00;102392.34;5020852;28;20470;-75
2023/11/17 04:18:38;;;;;;;4.00;1.30;;;;;;;5.45;100.00;102434.56;5017505;28;20451;-74
2023/11/17 04:21:05;;;;;;;5.30;1.47;;;;;;;4.72;100.00;102343.00;5015371;28;20991;-74
2023/11/17 04:23:30;;;;;;;4.40;1.50;;;;;;;5.18;100.00;102380.00;5018345;28;20455;-74
2023/11/17 04:25:56;;;;;;;4.80;1.60;;;;;;;5.01;100.00;102409.78;5015407;28;20449;-74
2023/11/17 04:28:21;;;;;;;3.13;1.30;;;;;;;4.38;100.00;102320.94;5019295;28;20181;-75
2023/11/17 04:30:47;;;;;;;3.23;1.70;;;;;;;4.74;100.00;102428.78;5016291;28;20211;-75
2023/11/17 04:33:13;;;;;;;3.37;1.70;;;;;;;3.67;100.00;102259.25;5018941;28;20809;-74
2023/11/17 04:35:39;;;;;;;3.50;1.30;;;;;;;4.94;100.00;102507.81;5018336;28;20454;-74
2023/11/17 04:38:05;;;;;;;3.60;1.50;;;;;;;4.91;100.00;102509.88;5018991;28;20835;-75
2023/11/17 04:40:32;;;;;;;3.93;1.60;;;;;;;4.65;100.00;102480.84;5018665;28;20296;-76
2023/11/17 04:42:57;;;;;;;5.20;1.67;;;;;;;4.10;100.00;102393.97;5017086;28;20187;-76
2023/11/17 04:45:25;;;;;;;3.60;1.53;;;;;;;4.14;100.00;102390.97;5016210;28;20440;-75
2023/11/17 04:47:51;;;;;;;4.10;1.87;;;;;;;4.39;100.00;102404.97;5015010;28;20254;-76
2023/11/17 04:50:17;;;;;;;3.33;1.50;;;;;;;4.78;100.00;102438.22;5017568;28;20470;-76
2023/11/17 04:52:43;;;;;;;5.20;1.70;;;;;;;4.37;100.00;102398.94;5016678;28;20443;-75
2023/11/17 04:55:13;;;;;;;4.33;1.50;;;;;;;4.63;100.00;102474.81;5020531;28;20462;-75
2023/11/17 04:57:39;;;;;;;4.13;1.80;;;;;;;4.95;100.00;102514.84;5018545;28;20208;-75
2023/11/17 05:00:06;;;;;;;3.33;1.60;;;;;;;4.32;100.00;102459.56;5015118;28;20430;-75
2023/11/17 05:02:33;;;;;;;4.10;1.83;;;;;;;4.78;100.00;102565.81;5015551;28;20451;-75
2023/11/17 05:04:59;;;;;;;3.43;1.40;;;;;;;4.67;100.00;102539.22;5018106;28;20987;-76
2023/11/17 05:07:25;;;;;;;4.90;1.67;;;;;;;4.17;100.00;102435.88;5016678;28;20439;-76
2023/11/17 05:09:50;;;;;;;5.10;1.90;;;;;;;4.47;100.00;102495.56;5015582;28;20445;-76
2023/11/17 05:12:16;;;;;;;2.90;1.50;;;;;;;3.63;100.00;102376.25;5017948;28;20184;-75
2023/11/17 05:14:41;;;;;;;5.47;1.67;;;;;;;4.39;100.00;102572.38;5016129;28;20205;-75
2023/11/17 05:17:07;;;;;;;5.17;1.87;;;;;;;4.68;100.00;102616.16;5016900;28;20573;-75
2023/11/17 05:19:32;;;;;;;3.70;1.60;;;;;;;3.69;100.00;102491.69;5015237;28;20178;-75
2023/11/17 05:21:58;;;;;;;2.60;1.10;;;;;;;4.09;100.00;102494.03;5014743;28;20177;-76
2023/11/17 05:24:23;;;;;;;3.80;1.73;;;;;;;4.44;100.00;102613.56;5019032;28;20234;-76
2023/11/17 05:26:49;;;;;;;3.67;1.50;;;;;;;4.14;100.00;102478.59;5018184;28;20680;-75
2023/11/17 05:29:15;;;;;;;4.60;1.63;;;;;;;4.17;100.00;102512.06;5014871;28;20448;-75
2023/11/17 05:31:42;;;;;;;5.47;1.80;;;;;;;4.01;100.00;102491.94;5016242;28;20446;-75
2023/11/17 05:34:09;;;;;;;3.53;1.60;;;;;;;5.07;100.00;102627.38;5019856;28;20521;-75
2023/11/17 05:36:39;;;;;;;6.60;2.00;;;;;;;4.42;100.00;102525.13;5020017;28;20470;-75
2023/11/17 05:39:05;;;;;;;4.40;1.70;;;;;;;5.39;100.00;102638.16;5016931;28;24138;-75
2023/11/17 05:41:31;;;;;;;3.60;1.60;;;;;;;4.68;100.00;102546.22;5018855;28;20837;-75
2023/11/17 05:43:57;;;;;;;3.87;1.80;;;;;;;5.02;100.00;102551.56;5017640;28;20462;-75
2023/11/17 05:46:24;;;;;;;5.20;2.50;;;;;;;4.81;100.00;102517.72;5018103;28;20187;-75
2023/11/17 05:48:50;;;;;;;4.03;2.07;;;;;;;5.13;100.00;102578.19;5015466;28;20526;-76
2023/11/17 05:51:16;;;;;;;4.03;2.00;;;;;;;4.88;100.00;102569.44;5015294;28;20507;-76
2023/11/17 05:53:43;;;;;;;4.53;2.20;;;;;;;4.58;100.00;102593.94;5015981;28;20458;-76
2023/11/17 05:56:11;;;;;;;5.90;2.90;;;;;;;4.81;100.00;102657.78;5017478;28;20794;-76
2023/11/17 05:58:36;;;;;;;7.60;2.73;;;;;;;4.01;100.00;102509.69;5017986;28;20449;-76
2023/11/17 06:01:03;;;;;;;6.60;2.70;;;;;;;4.27;100.00;102513.88;5016363;28;20431;-75
2023/11/17 06:03:29;;;;;;;6.37;2.97;;;;;;;4.58;100.00;102524.00;5017359;28;20506;-76
2023/11/17 06:05:55;;;;;;;5.90;2.30;;;;;;;4.97;100.00;102637.03;5016530;28;20464;-76
2023/11/17 06:08:21;;;;;;;5.40;2.60;;;;;;;5.16;100.00;102663.06;5018339;28;20184;-76
2023/11/17 06:10:47;;;;;;;4.63;2.50;;;;;;;4.51;100.00;102574.94;5017227;28;20447;-76
2023/11/17 06:13:15;;;;;;;4.00;2.50;;;;;;;5.24;100.00;102671.31;5015314;28;20459;-76
2023/11/17 06:15:41;;;;;;;5.80;3.30;;;;;;;4.33;100.00;102554.22;5017597;28;20223;-77
2023/11/17 06:18:07;;;;;;;4.50;2.20;;;;;;;4.87;100.00;102589.03;5016123;28;20463;-77
2023/11/17 06:20:33;;;;;;;6.80;2.40;;;;;;;5.31;100.00;102653.03;5014530;28;20185;-76
2023/11/17 06:22:59;;;;;;;4.73;2.80;;;;;;;4.84;100.00;102593.75;5016003;28;20439;-76
2023/11/17 06:25:25;;;;;;;6.00;3.07;;;;;;;5.50;100.00;102721.66;5019867;28;20878;-76
2023/11/17 06:27:51;;;;;;;6.83;2.53;;;;;;;5.10;100.00;102637.78;5016638;28;20464;-76
2023/11/17 06:30:17;;;;;;;5.93;2.90;;;;;;;4.82;100.00;102622.25;5017213;28;20927;-76
2023/11/17 06:32:43;;;;;;;4.00;2.30;;;;;;;5.03;100.00;102615.28;5019027;28;20891;-76
2023/11/17 06:35:09;;;;;;;4.30;2.90;;;;;;;5.50;100.00;102714.53;5017432;28;20454;-76
2023/11/17 06:37:34;;;;;;;4.80;2.60;;;;;;;5.82;100.00;102730.63;5017019;28;20228;-76
2023/11/17 06:40:01;;;;;;;4.70;2.33;;;;;;;5.93;100.00;102731.56;5018352;28;20530;-76
2023/11/17 06:42:28;;;;;;;4.30;2.67;;;;;;;5.01;100.00;102606.59;5022089;28;20192;-76
2023/11/17 06:44:53;;;;;;;5.30;3.03;;;;;;;4.90;100.00;102609.22;5017833;28;21227;-76
2023/11/17 06:47:19;;;;;;;4.77;2.67;;;;;;;5.40;100.00;102725.00;5024393;28;20538;-76
2023/11/17 06:49:44;;;;;;;5.83;2.70;;;;;;;4.50;100.00;102585.69;5017749;28;20302;-76
2023/11/17 06:52:09;;;;;;;4.90;2.80;;;;;;;4.60;100.00;102607.97;5021079;28;20279;-77
2023/11/17 06:54:35;;;;;;;5.13;2.93;;;;;;;5.23;100.00;102685.56;5020275;28;20212;-77
2023/11/17 06:57:01;;;;;;;8.30;3.80;;;;;;;5.05;100.00;102599.22;5019690;28;20213;-76
2023/11/17 06:59:26;;;;;;;9.53;4.10;;;;;;;5.08;100.00;102598.97;5019616;28;20184;-76
2023/11/17 07:01:51;;;;;;;5.30;3.10;;;;;;;5.48;100.00;102694.31;5021394;28;20192;-76
2023/11/17 07:04:19;;;;;;;5.80;3.13;;;;;;;5.70;100.00;102734.25;5017204;28;20212;-76
2023/11/17 07:06:44;;;;;;;4.53;2.70;;;;;;;5.46;100.00;102750.31;5021361;28;21393;-76
2023/11/17 07:09:16;;;;;;;4.90;2.50;;;;;;;5.61;100.00;102757.13;5019130;28;20443;-77
2023/11/17 07:11:46;;;;;;;6.10;2.80;;;;;;;5.26;100.00;102751.00;5020134;28;20189;-77
2023/11/17 07:14:16;;;;;;;6.33;3.10;;;;;;;5.03;100.00;102663.16;5034016;28;21002;-77
2023/11/17 07:16:42;;;;;;;5.57;2.93;;;;;;;4.16;100.00;102577.59;5020747;28;20526;-77
2023/11/17 07:19:08;;;;;;;5.80;3.10;;;;;;;4.55;100.00;102633.19;5023287;28;20446;-76
2023/11/17 07:21:39;;;;;;;8.43;3.00;;;;;;;5.74;100.00;102778.31;5021278;28;20188;-77
2023/11/17 07:24:05;;;;;;;5.53;3.33;;;;;;;4.38;100.00;102658.34;5021658;28;20460;-76
2023/11/17 07:26:34;;;;;;;6.30;2.97;;;;;;;4.97;100.00;102699.03;5021264;28;20526;-76
2023/11/17 07:29:03;;;;;;;5.13;2.93;;;;;;;5.16;100.00;102681.69;5023326;28;20454;-76
2023/11/17 07:31:29;;;;;;;5.10;3.43;;;;;;;5.57;100.00;102753.00;5021529;28;21039;-76
2023/11/17 07:33:55;;;;;;;12.43;3.77;;;;;;;5.35;100.00;102675.78;5020561;28;20455;-76
2023/11/17 07:36:22;;;;;;;6.40;3.63;;;;;;;5.29;100.00;102722.31;5018776;28;20494;-76
2023/11/17 07:38:51;;;;;;;7.00;3.60;;;;;;;4.76;100.00;102664.28;5020152;28;20219;-76
2023/11/17 07:41:20;;;;;;;5.50;3.60;;;;;;;5.36;100.00;102765.31;5022561;28;20473;-77
2023/11/17 07:43:45;;;;;;;4.40;3.10;;;;;;;4.96;100.00;102635.34;5016707;28;20465;-76
2023/11/17 07:46:11;;;;;;;4.83;3.33;;;;;;;5.28;100.00;102733.94;5021818;28;20529;-76
2023/11/17 07:48:37;;;;;;;7.10;4.30;;;;;;;4.94;100.00;102709.06;5015873;28;20284;-76
2023/11/17 07:51:03;;;;;;;5.80;3.37;;;;;;;4.73;100.00;102648.56;5020428;28;21006;-77
2023/11/17 07:53:29;;;;;;;5.50;3.50;;;;;;;4.89;100.00;102680.19;5022231;28;20212;-76
2023/11/17 07:55:54;;;;;;;6.90;2.87;;;;;;;4.89;100.00;102652.72;5019182;28;20184;-76
2023/11/17 07:58:20;;;;;;;5.87;3.13;;;;;;;5.01;100.00;102710.31;5022012;28;20475;-76
2023/11/17 08:00:47;;;;;;;7.00;3.50;;;;;;;5.24;100.00;102750.28;5019655;28;20435;-77
2023/11/17 08:03:14;;;;;;;7.57;3.17;;;;;;;5.47;100.00;102752.03;5021695;28;20652;-76
2023/11/17 08:05:40;;;;;;;7.00;3.20;;;;;;;5.35;100.00;102780.44;5014955;28;20806;-76
2023/11/17 08:08:06;;;;;;;4.73;2.90;;;;;;;4.80;100.00;102720.72;5023567;28;20471;-76
2023/11/17 08:10:33;;;;;;;3.73;2.63;;;;;;;5.18;100.00;102796.81;5020261;28;20196;-76
2023/11/17 08:12:59;;;;;;;4.17;2.67;;;;;;;4.57;100.00;102698.56;5014963;28;20447;-76
2023/11/17 08:15:24;;;;;;;6.10;3.23;;;;;;;4.51;100.00;102709.59;5018349;28;20442;-76
2023/11/17 08:17:49;;;;;;;4.33;3.10;;;;;;;4.84;100.00;102793.16;5020619;28;20219;-76
2023/11/17 08:20:15;;;;;;;3.60;2.43;;;;;;;5.17;100.00;102824.38;5021385;28;20188;-76
2023/11/17 08:22:42;;;;;;;5.70;3.00;;;;;;;4.61;100.00;102718.63;5021169;28;20555;-76
2023/11/17 08:25:08;;;;;;;4.60;3.33;;;;;;;4.12;100.00;102706.25;5022380;28;20234;-76
2023/11/17 08:27:33;;;;;;;4.30;2.80;;;;;;;4.76;100.00;102783.09;5021215;28;20526;-76
2023/11/17 08:29:59;;;;;;;8.13;3.20;;;;;;;4.34;100.00;102712.66;5022217;28;20991;-76
2023/11/17 08:32:24;;;;;;;4.70;3.10;;;;;;;5.11;100.00;102846.94;5019352;28;20180;-77
2023/11/17 08:34:50;;;;;;;5.17;3.40;;;;;;;4.80;100.00;102791.69;5024282;28;20208;-76
2023/11/17 08:37:15;;;;;;;8.20;3.00;;;;;;;4.46;100.00;102694.03;5018771;28;20254;-76
2023/11/17 08:39:41;;;;;;;8.43;3.63;;;;;;;4.52;100.00;102752.03;5021318;28;20235;-76
2023/11/17 08:42:08;;;;;;;11.43;3.07;;;;;;;5.08;100.00;102833.88;5020070;28;20242;-76
2023/11/17 08:44:34;;;;;;;10.63;3.43;;;;;;;5.10;100.00;102839.09;5019739;28;20970;-76
2023/11/17 08:46:59;;;;;;;7.17;3.40;;;;;;;5.14;100.00;102833.41;5014672;28;20460;-76
2023/11/17 08:49:25;;;;;;;9.20;3.70;;;;;;;4.98;100.00;102801.81;5018078;28;20758;-77
2023/11/17 08:51:51;;;;;;;10.40;4.33;;;;;;;5.26;100.00;102858.25;5014093;28;20188;-76
2023/11/17 08:54:21;;;;;;;14.20;3.50;;;;;;;5.49;100.00;102863.69;5022931;28;20462;-76
2023/11/17 08:56:47;;;;;;;10.40;3.50;;;;;;;5.36;100.00;102869.94;5017979;28;20624;-76
2023/11/17 08:59:13;;;;;;;10.07;3.60;;;;;;;4.84;100.00;102803.81;5022170;28;20451;-76
2023/11/17 09:01:39;;;;;;;12.30;4.13;;;;;;;5.00;100.00;102860.19;5018676;28;20444;-76
2023/11/17 09:04:06;;;;;;;18.97;4.60;;;;;;;5.06;100.00;102864.22;5015017;28;20463;-77
2023/11/17 09:06:31;;;;;;;13.83;3.50;;;;;;;5.26;100.00;102846.78;5016773;28;20441;-76
2023/11/17 09:08:57;;;;;;;9.40;3.60;;;;;;;4.33;100.00;102718.94;5018136;28;20443;-76
2023/11/17 09:11:22;;;;;;;10.87;4.47;;;;;;;4.59;100.00;102756.91;5015792;28;20196;-76
2023/11/17 09:13:49;;;;;;;6.90;3.80;;;;;;;5.71;100.00;102871.75;5017357;28;20196;-76
2023/11/17 09:16:15;;;;;;;5.20;3.07;;;;;;;5.82;100.00;102873.59;5016344;28;20535;-76
2023/11/17 09:18:41;;;;;;;5.20;3.60;;;;;;;5.23;100.00;102791.97;5019338;28;20947;-76
2023/11/17 09:21:07;;;;;;;6.20;3.10;;;;;;;6.08;100.00;102928.41;5015259;28;20508;-76
2023/11/17 09:23:36;;;;;;;8.03;4.13;;;;;;;5.77;100.00;102818.00;5018056;28;20375;-76
2023/11/17 09:26:07;;;;;;;6.73;4.20;;;;;;;5.79;100.00;102810.75;5018656;28;20534;-76
2023/11/17 09:28:33;;;;;;;5.27;4.00;;;;;;;5.55;100.00;102834.78;5023084;28;20446;-76
2023/11/17 09:30:58;;;;;;;6.17;3.57;;;;;;;5.04;100.00;102749.13;5046513;22;21018;-72
2023/11/17 09:33:24;;;;;;;6.13;3.37;;;;;;;3.61;100.00;102471.03;5038487;28;20258;-72
2023/11/17 09:35:49;;;;;;;5.87;3.83;;;;;;;4.49;100.00;102611.41;5038360;28;21102;-73
2023/11/17 09:38:17;;;;;;;5.07;3.40;;;;;;;4.50;100.00;102543.16;5035072;28;20291;-73
2023/11/17 09:40:43;;;;;;;6.37;3.80;;;;;;;4.46;100.00;102595.72;5038710;28;20202;-74
2023/11/17 09:43:21;;;;;;;6.63;3.77;;;;;;;6.61;100.00;102903.00;5041698;28;21017;-73
2023/11/17 09:45:47;;;;;;;5.93;4.20;;;;;;;3.77;100.00;102416.81;5032311;28;20445;-73
2023/11/17 09:48:14;;;;;;;5.83;3.77;;;;;;;5.55;100.00;102699.00;5038238;28;20430;-74
2023/11/17 09:50:41;;;;;;;7.73;3.50;;;;;;;4.12;100.00;102475.22;5037401;28;20442;-73
2023/11/17 09:53:09;;;;;;;7.47;3.90;;;;;;;3.49;100.00;102368.47;5036037;28;20821;-74
2023/11/17 09:55:38;;;;;;;5.30;3.93;;;;;;;6.86;100.00;102924.06;5037221;28;20492;-73
2023/11/17 09:58:07;;;;;;;7.60;3.87;;;;;;;5.05;100.00;102618.66;5034718;28;20462;-73
2023/11/17 10:00:36;;;;;;;7.90;4.13;;;;;;;6.81;100.00;102926.25;5034756;28;20540;-73
2023/11/17 10:03:03;;;;;;;5.17;3.40;;;;;;;4.72;100.00;102591.06;5038708;28;20898;-74
2023/11/17 10:05:36;;;;;;;7.30;3.93;;;;;;;4.21;100.00;102481.63;5035931;28;20442;-73
2023/11/17 10:08:10;;;;;;;10.53;4.07;;;;;;;4.42;100.00;102509.19;5034475;28;20449;-73
2023/11/17 10:10:42;;;;;;;8.10;4.93;;;;;;;4.69;100.00;102609.91;5040889;28;20571;-73
2023/11/17 10:13:11;;;;;;;4.87;3.37;;;;;;;4.02;100.00;102498.97;5041882;28;20465;-73
2023/11/17 10:15:50;;;;;;;10.67;4.67;;;;;;;4.72;100.00;102595.53;5043992;28;20465;-73
2023/11/17 10:18:24;;;;;;;9.20;4.47;;;;;;;4.80;100.00;102597.59;5040321;28;22357;-73
2023/11/17 10:20:50;;;;;;;7.10;4.20;;;;;;;5.34;100.00;102714.00;5042154;28;20450;-73
2023/11/17 10:23:16;;;;;;;10.07;4.70;;;;;;;4.68;100.00;102584.28;5039811;28;20517;-74
2023/11/17 10:25:43;;;;;;;7.43;3.90;;;;;;;4.70;100.00;102616.91;5041583;28;20439;-73
2023/11/17 10:28:09;;;;;;;6.87;3.73;;;;;;;6.67;100.00;102906.00;5039889;28;20184;-73
2023/11/17 10:30:37;;;;;;;5.93;3.50;;;;;;;6.18;100.00;102835.25;5040126;28;20810;-73
2023/11/17 10:33:31;;;;;;;6.97;3.60;;;;;;;6.82;100.00;102903.09;5038426;28;20485;-73
2023/11/17 10:36:12;;;;;;;6.33;3.20;;;;;;;6.83;100.00;102902.09;5039358;28;20418;-74
2023/11/17 10:38:39;;;;;;;6.00;3.90;;;;;;;6.81;100.00;102877.38;5042564;28;20429;-73
2023/11/17 10:41:20;;;;;;;5.47;3.57;;;;;;;6.78;100.00;102890.00;5042727;28;20438;-74
2023/11/17 10:43:50;;;;;;;5.90;3.60;;;;;;;6.85;100.00;102884.16;5040643;28;20503;-73
2023/11/17 10:46:21;;;;;;;8.20;4.00;;;;;;;6.30;100.00;102814.78;5037695;28;20438;-73
2023/11/17 10:48:50;;;;;;;6.10;3.90;;;;;;;6.74;100.00;102874.34;5035472;28;20450;-74
2023/11/17 10:51:21;;;;;;;6.50;3.20;;;;;;;6.70;100.00;102878.25;5042257;28;20438;-73
2023/11/17 10:54:08;;;;;;;6.13;3.47;;;;;;;6.92;100.00;102867.53;5036894;28;20454;-73
2023/11/17 10:56:35;;;;;;;6.23;3.57;;;;;;;6.82;100.00;102842.56;5037789;28;20457;-73
2023/11/17 10:59:02;;;;;;;6.07;3.27;;;;;;;6.98;100.00;102852.84;5041000;28;20450;-73
2023/11/17 11:01:35;;;;;;;6.63;2.70;;;;;;;6.80;100.00;102823.19;5042234;28;20434;-74
2023/11/17 11:04:02;;;;;;;5.40;2.80;;;;;;;6.87;100.00;102845.72;5034020;28;20572;-74
2023/11/17 11:06:29;;;;;;;5.20;2.73;;;;;;;6.97;100.00;102862.69;5029733;28;20458;-75
2023/11/17 11:09:00;;;;;;;4.83;2.63;;;;;;;7.09;100.00;102865.28;5033482;28;20531;-73
2023/11/17 11:11:26;;;;;;;4.60;2.27;;;;;;;7.11;100.00;102860.69;5040291;28;20953;-72
2023/11/17 11:13:57;;;;;;;7.40;2.60;;;;;;;7.20;100.00;102857.25;5039394;28;21481;-72
2023/11/17 11:16:24;;;;;;;5.93;2.10;;;;;;;7.16;100.00;102854.00;5039369;28;21015;-72
2023/11/17 11:18:53;;;;;;;3.30;1.70;;;;;;;7.31;100.00;102854.53;5039541;28;20442;-72
2023/11/17 11:21:20;;;;;;;5.27;2.13;;;;;;;7.34;100.00;102848.09;5037393;28;20435;-73
2023/11/17 11:23:47;;;;;;;4.10;1.70;;;;;;;7.24;100.00;102838.19;5034443;28;20466;-73
2023/11/17 11:26:14;;;;;;;3.77;1.80;;;;;;;6.64;100.00;102710.75;5037289;28;21776;-73